Time;durP1;ratioP1;P1;durP2;ratioP2;P2;SDS_P1;SDS_P2;PMS_P1;PMS_P2;Temp;Humidity;BMP_temperature;BMP_pressure;BME280_temperature;BME280_humidity;BME280_pressure;Samples;Min_cycle;Max_cycle;Signal;HPM_P1;HPM_P2
2022/10/14 00:00:36;;;;;;;17.67;11.55;;;15.30;66.00;;;;;;5072539;28;20025;-74
2022/10/14 00:03:01;;;;;;;16.48;12.05;;;15.30;65.90;;;;;;5072453;28;20032;-76
2022/10/14 00:05:27;;;;;;;22.27;12.40;;;15.30;65.80;;;;;;5072234;28;20013;-75
2022/10/14 00:07:53;;;;;;;17.63;13.18;;;15.30;65.80;;;;;;5070607;28;20032;-74
2022/10/14 00:10:19;;;;;;;17.83;12.43;;;15.30;65.90;;;;;;5067921;28;20017;-76
2022/10/14 00:12:46;;;;;;;17.20;11.68;;;15.30;65.90;;;;;;5072404;28;20497;-72
2022/10/14 00:15:12;;;;;;;18.05;12.95;;;15.30;65.80;;;;;;5072266;28;20027;-76
2022/10/14 00:17:38;;;;;;;17.48;12.40;;;15.30;65.70;;;;;;5074322;28;20033;-75
2022/10/14 00:20:05;;;;;;;18.75;12.23;;;15.30;65.60;;;;;;5076266;28;20025;-75
2022/10/14 00:22:31;;;;;;;19.80;13.18;;;15.30;65.60;;;;;;5076177;28;20027;-74
2022/10/14 00:24:56;;;;;;;22.85;12.85;;;15.20;65.50;;;;;;5073949;28;20024;-72
2022/10/14 00:27:22;;;;;;;17.95;12.32;;;15.20;65.60;;;;;;5059477;28;20020;-72
2022/10/14 00:29:48;;;;;;;16.55;11.90;;;15.10;65.50;;;;;;5056009;28;20017;-71
2022/10/14 00:32:14;;;;;;;30.08;12.70;;;15.10;65.50;;;;;;5056012;28;20028;-72
2022/10/14 00:34:40;;;;;;;18.30;12.68;;;15.10;65.70;;;;;;5072214;28;20051;-77
2022/10/14 00:37:06;;;;;;;19.83;13.00;;;15.00;65.70;;;;;;5075835;28;20032;-73
2022/10/14 00:39:31;;;;;;;24.67;14.00;;;15.00;66.00;;;;;;5075859;28;20091;-76
2022/10/14 00:41:57;;;;;;;23.05;12.65;;;15.00;66.10;;;;;;5071024;28;20060;-75
2022/10/14 00:44:23;;;;;;;15.88;11.57;;;14.90;66.00;;;;;;5075927;28;20082;-76
2022/10/14 00:46:50;;;;;;;19.40;12.65;;;14.90;66.10;;;;;;5075473;28;20044;-75
2022/10/14 00:49:42;;;;;;;19.30;12.20;;;14.90;66.30;;;;;;5075739;28;20024;-72
2022/10/14 00:52:15;;;;;;;21.23;13.50;;;14.90;66.40;;;;;;5073899;28;20033;-73
2022/10/14 00:55:00;;;;;;;19.88;12.55;;;14.90;66.30;;;;;;5076138;28;20048;-75
2022/10/14 00:57:28;;;;;;;19.38;13.90;;;14.80;66.10;;;;;;5091237;28;20446;-73
2022/10/14 01:00:00;;;;;;;22.33;12.88;;;14.90;66.10;;;;;;5063276;28;20471;-74
2022/10/14 01:02:25;;;;;;;24.42;13.90;;;14.80;66.30;;;;;;5055365;28;20021;-76
2022/10/14 01:04:51;;;;;;;18.40;13.50;;;14.80;67.00;;;;;;5072722;28;20528;-75
2022/10/14 01:07:23;;;;;;;19.80;13.18;;;14.70;66.40;;;;;;5075221;28;20430;-77
2022/10/14 01:10:01;;;;;;;20.15;13.02;;;14.80;66.80;;;;;;5075215;28;20020;-75
2022/10/14 01:13:04;;;;;;;19.13;13.57;;;14.80;67.10;;;;;;5073821;28;20016;-75
2022/10/14 01:15:39;;;;;;;15.63;11.80;;;14.80;67.20;;;;;;5072428;28;20078;-74
2022/10/14 01:18:24;;;;;;;22.90;12.52;;;14.80;66.90;;;;;;5055110;28;20032;-74
2022/10/14 01:21:27;;;;;;;16.95;12.15;;;14.80;66.70;;;;;;5055007;28;20016;-72
2022/10/14 01:24:04;;;;;;;17.48;12.13;;;14.80;66.70;;;;;;5032615;28;20121;-73
2022/10/14 01:26:53;;;;;;;16.75;12.23;;;14.80;66.50;;;;;;5032728;28;20038;-73
2022/10/14 01:29:46;;;;;;;16.80;12.40;;;14.80;66.60;;;;;;5024146;28;20037;-71
2022/10/14 01:32:27;;;;;;;19.75;13.32;;;14.80;66.50;;;;;;5011708;28;20028;-72
2022/10/14 01:35:22;;;;;;;28.38;14.60;;;14.70;66.70;;;;;;5032529;28;20033;-74
2022/10/14 01:37:56;;;;;;;22.15;14.23;;;14.70;66.90;;;;;;5032644;28;20033;-74
2022/10/14 01:40:48;;;;;;;19.75;13.02;;;14.70;66.90;;;;;;5032663;28;20125;-74
2022/10/14 01:43:18;;;;;;;18.92;14.00;;;14.70;67.10;;;;;;5032576;28;20403;-74
2022/10/14 01:45:48;;;;;;;23.60;14.90;;;14.70;67.10;;;;;;5032201;28;20466;-73
2022/10/14 01:48:18;;;;;;;21.58;14.10;;;14.60;67.30;;;;;;5032506;28;20136;-72
2022/10/14 01:50:47;;;;;;;19.52;14.02;;;14.70;67.40;;;;;;5027546;28;20022;-73
2022/10/14 01:53:20;;;;;;;28.05;17.13;;;14.70;67.50;;;;;;5032489;28;20041;-74
2022/10/14 01:55:47;;;;;;;21.75;14.32;;;14.70;67.90;;;;;;5032558;28;20497;-74
2022/10/14 01:58:16;;;;;;;24.63;14.10;;;14.70;67.80;;;;;;5033151;28;20037;-73
2022/10/14 02:00:42;;;;;;;25.55;16.83;;;14.80;67.90;;;;;;5074486;28;20108;-71
2022/10/14 02:03:10;;;;;;;24.92;15.90;;;14.80;68.40;;;;;;5074248;28;20024;-73
2022/10/14 02:05:47;;;;;;;24.25;15.75;;;14.80;68.50;;;;;;5074226;28;20017;-73
2022/10/14 02:08:41;;;;;;;26.73;17.67;;;14.90;68.60;;;;;;5074136;28;20099;-75
2022/10/14 02:11:16;;;;;;;29.88;18.02;;;14.90;68.70;;;;;;5074002;28;20143;-75
2022/10/14 02:13:47;;;;;;;27.98;18.15;;;15.00;68.80;;;;;;5073946;28;20024;-74
2022/10/14 02:16:25;;;;;;;26.30;17.77;;;15.00;68.80;;;;;;5074280;28;20074;-74
2022/10/14 02:19:15;;;;;;;22.48;14.73;;;15.00;68.70;;;;;;5073937;28;20110;-71
2022/10/14 02:21:51;;;;;;;26.80;15.55;;;15.10;68.50;;;;;;5073768;28;20054;-71
2022/10/14 02:24:40;;;;;;;24.23;14.85;;;15.10;68.30;;;;;;5073830;28;20121;-73
2022/10/14 02:27:12;;;;;;;26.60;16.42;;;15.20;68.20;;;;;;5073710;28;20108;-72
2022/10/14 02:29:41;;;;;;;22.58;14.13;;;15.20;68.20;;;;;;5073699;28;20024;-74
2022/10/14 02:32:08;;;;;;;25.00;15.38;;;15.20;68.00;;;;;;5073598;28;20025;-70
2022/10/14 02:34:36;;;;;;;27.35;16.70;;;15.20;68.00;;;;;;5072360;28;20389;-72
2022/10/14 02:37:03;;;;;;;26.95;16.30;;;15.20;68.00;;;;;;5073640;28;20055;-77
2022/10/14 02:39:33;;;;;;;30.95;15.98;;;15.30;68.00;;;;;;5067921;28;20031;-74
2022/10/14 02:41:59;;;;;;;24.05;15.70;;;15.30;67.90;;;;;;5072394;28;20033;-75
2022/10/14 02:44:25;;;;;;;24.98;15.93;;;15.30;67.80;;;;;;5073852;28;20020;-75
2022/10/14 02:46:53;;;;;;;28.15;14.75;;;15.30;67.80;;;;;;5073179;28;20044;-74
2022/10/14 02:49:19;;;;;;;25.67;16.77;;;15.40;67.80;;;;;;5073463;28;20051;-73
2022/10/14 02:51:45;;;;;;;28.02;16.23;;;15.40;67.70;;;;;;5073758;28;20101;-76
2022/10/14 02:54:10;;;;;;;22.70;16.20;;;15.40;67.60;;;;;;5073347;28;20032;-77
2022/10/14 02:56:36;;;;;;;30.33;17.77;;;15.40;67.90;;;;;;5073765;28;20078;-75
2022/10/14 02:59:02;;;;;;;25.25;18.10;;;15.40;68.10;;;;;;5053481;28;20056;-73
2022/10/14 03:01:28;;;;;;;30.90;20.95;;;15.30;68.60;;;;;;5053162;28;20078;-76
2022/10/14 03:03:53;;;;;;;33.92;21.15;;;15.30;69.10;;;;;;5061309;28;20024;-72
2022/10/14 03:06:19;;;;;;;28.52;19.63;;;15.30;69.40;;;;;;5073246;28;20023;-75
2022/10/14 03:08:45;;;;;;;32.67;17.33;;;15.30;70.10;;;;;;5073296;28;20027;-76
2022/10/14 03:11:11;;;;;;;24.02;15.75;;;15.20;70.20;;;;;;5073126;28;20017;-73
2022/10/14 03:13:37;;;;;;;25.20;16.48;;;15.20;71.00;;;;;;5073208;28;20381;-73
2022/10/14 03:16:02;;;;;;;23.60;15.55;;;15.20;71.30;;;;;;5071785;28;20029;-77
2022/10/14 03:18:29;;;;;;;22.00;14.13;;;15.20;72.50;;;;;;5073003;28;20032;-74
2022/10/14 03:20:55;;;;;;;21.70;14.70;;;15.20;72.10;;;;;;5072992;28;20024;-75
2022/10/14 03:23:21;;;;;;;24.13;15.85;;;15.20;72.00;;;;;;5072840;28;20478;-74
2022/10/14 03:25:47;;;;;;;19.35;14.45;;;15.10;72.00;;;;;;5072776;28;20091;-75
2022/10/14 03:28:13;;;;;;;17.45;13.65;;;15.10;72.10;;;;;;5072857;28;20025;-73
2022/10/14 03:30:39;;;;;;;17.70;13.75;;;15.10;72.20;;;;;;5072771;28;20427;-74
2022/10/14 03:33:05;;;;;;;20.60;13.98;;;15.10;72.30;;;;;;5072493;28;20443;-76
2022/10/14 03:35:30;;;;;;;21.73;15.45;;;15.10;72.50;;;;;;5072731;28;20077;-72
2022/10/14 03:37:58;;;;;;;25.90;15.93;;;15.10;72.60;;;;;;5072604;28;20024;-74
2022/10/14 03:40:24;;;;;;;24.02;15.57;;;15.10;72.80;;;;;;5072559;28;20049;-72
2022/10/14 03:42:49;;;;;;;18.10;13.80;;;15.10;72.90;;;;;;5072493;28;20103;-71
2022/10/14 03:45:15;;;;;;;23.80;16.00;;;15.10;73.00;;;;;;5071007;28;20055;-72
2022/10/14 03:47:41;;;;;;;22.02;15.35;;;15.10;73.10;;;;;;5072653;28;20023;-72
2022/10/14 03:50:07;;;;;;;17.17;12.60;;;15.10;73.10;;;;;;5072517;28;20035;-72
2022/10/14 03:52:33;;;;;;;28.98;18.10;;;15.10;73.10;;;;;;5072103;28;20393;-75
2022/10/14 03:54:59;;;;;;;22.27;16.75;;;15.10;73.30;;;;;;5072448;28;20031;-72
2022/10/14 03:57:25;;;;;;;25.48;18.40;;;15.10;73.30;;;;;;5072466;28;20032;-73
2022/10/14 03:59:50;;;;;;;27.10;18.33;;;15.10;73.30;;;;;;5072396;28;20036;-74
2022/10/14 04:02:16;;;;;;;21.08;16.48;;;15.10;73.20;;;;;;5072357;28;20025;-73
2022/10/14 04:04:42;;;;;;;27.05;20.15;;;15.10;73.20;;;;;;5072154;28;20025;-72
2022/10/14 04:07:07;;;;;;;27.25;18.48;;;15.10;73.20;;;;;;5072394;28;20051;-72
2022/10/14 04:09:33;;;;;;;30.42;19.58;;;15.10;73.40;;;;;;5071053;28;20021;-73
2022/10/14 04:11:59;;;;;;;26.77;18.13;;;15.10;73.40;;;;;;5072198;28;20028;-72
2022/10/14 04:14:25;;;;;;;24.88;18.83;;;15.10;73.50;;;;;;5072244;28;20032;-73
2022/10/14 04:16:51;;;;;;;26.27;18.92;;;15.10;73.50;;;;;;5072150;28;20112;-71
2022/10/14 04:19:18;;;;;;;26.98;19.80;;;15.10;73.50;;;;;;5072154;28;20474;-74
2022/10/14 04:21:44;;;;;;;23.10;18.27;;;15.00;73.50;;;;;;5072158;28;20028;-71
2022/10/14 04:24:10;;;;;;;26.55;18.25;;;15.00;73.50;;;;;;5070944;28;20020;-74
2022/10/14 04:26:35;;;;;;;26.60;18.60;;;15.00;73.60;;;;;;5072274;28;20043;-75
2022/10/14 04:29:01;;;;;;;26.52;17.25;;;15.00;73.70;;;;;;5072160;28;20028;-72
2022/10/14 04:31:27;;;;;;;25.92;16.25;;;15.10;73.80;;;;;;5072098;28;20100;-74
2022/10/14 04:33:53;;;;;;;25.33;18.05;;;15.10;73.90;;;;;;5072020;28;20025;-73
2022/10/14 04:36:18;;;;;;;20.85;15.50;;;15.10;74.00;;;;;;5072020;28;20025;-74
2022/10/14 04:38:44;;;;;;;21.40;15.10;;;15.10;74.00;;;;;;5071974;28;20504;-71
2022/10/14 04:41:10;;;;;;;23.50;15.90;;;15.10;74.00;;;;;;5071996;28;20493;-73
2022/10/14 04:43:36;;;;;;;24.08;16.52;;;15.20;74.10;;;;;;5071711;28;20063;-72
2022/10/14 04:46:01;;;;;;;20.92;16.02;;;15.20;74.10;;;;;;5071650;28;20061;-71
2022/10/14 04:48:27;;;;;;;22.10;15.38;;;15.20;74.00;;;;;;5071935;28;20091;-72
2022/10/14 04:50:53;;;;;;;18.05;13.55;;;15.20;73.90;;;;;;5071797;28;20464;-74
2022/10/14 04:53:19;;;;;;;19.05;13.82;;;15.30;73.80;;;;;;5071979;28;20025;-74
2022/10/14 04:55:48;;;;;;;17.88;13.35;;;15.30;73.80;;;;;;5069412;28;20048;-74
2022/10/14 04:58:15;;;;;;;19.08;14.50;;;15.30;73.70;;;;;;5051713;28;20029;-74
2022/10/14 05:00:41;;;;;;;18.27;13.88;;;15.30;73.80;;;;;;5051828;28;20017;-72
2022/10/14 05:03:07;;;;;;;17.63;13.20;;;15.40;73.80;;;;;;5052007;28;20113;-73
2022/10/14 05:05:33;;;;;;;17.02;13.30;;;15.40;73.80;;;;;;5074850;28;20057;-73
2022/10/14 05:07:59;;;;;;;20.08;13.85;;;15.40;73.80;;;;;;5075276;28;20025;-74
2022/10/14 05:10:25;;;;;;;18.80;13.63;;;15.40;73.80;;;;;;5075285;28;20075;-72
2022/10/14 05:12:51;;;;;;;18.63;13.95;;;15.50;73.90;;;;;;5075269;28;20478;-73
2022/10/14 05:15:17;;;;;;;18.80;15.00;;;15.50;73.80;;;;;;5075184;28;20470;-73
2022/10/14 05:17:43;;;;;;;19.45;13.93;;;15.50;73.60;;;;;;5075034;28;20032;-74
2022/10/14 05:20:11;;;;;;;20.40;13.48;;;15.60;73.60;;;;;;5075107;28;20470;-73
2022/10/14 05:22:37;;;;;;;22.20;14.35;;;15.60;73.50;;;;;;5075273;28;20104;-73
2022/10/14 05:25:03;;;;;;;20.70;13.90;;;15.60;73.40;;;;;;5075059;28;20020;-71
2022/10/14 05:27:29;;;;;;;20.15;14.55;;;15.60;73.50;;;;;;5075022;28;20016;-74
2022/10/14 05:29:55;;;;;;;21.20;13.77;;;15.60;73.40;;;;;;5074966;28;20031;-75
2022/10/14 05:32:21;;;;;;;18.92;14.60;;;15.60;73.40;;;;;;5074771;28;20040;-73
2022/10/14 05:34:47;;;;;;;20.80;14.00;;;15.60;73.40;;;;;;5074580;28;20063;-74
2022/10/14 05:37:13;;;;;;;18.15;13.07;;;15.60;73.40;;;;;;5074824;28;20074;-72
2022/10/14 05:39:39;;;;;;;17.42;13.32;;;15.60;73.40;;;;;;5072317;28;20032;-72
2022/10/14 05:42:05;;;;;;;18.70;13.57;;;15.70;73.40;;;;;;5061604;28;20436;-76
2022/10/14 05:44:30;;;;;;;17.70;12.55;;;15.70;73.30;;;;;;5069539;28;20029;-74
2022/10/14 05:46:56;;;;;;;20.10;14.23;;;15.70;73.20;;;;;;5068314;28;20044;-73
2022/10/14 05:49:22;;;;;;;18.63;14.25;;;15.70;73.30;;;;;;5074200;28;20081;-73
2022/10/14 05:51:48;;;;;;;20.80;14.43;;;15.80;73.30;;;;;;5067870;28;20036;-72
2022/10/14 05:54:14;;;;;;;17.92;13.48;;;15.80;73.20;;;;;;5085606;28;20020;-72
2022/10/14 05:56:40;;;;;;;18.48;14.18;;;15.80;73.20;;;;;;5079867;28;20122;-75
2022/10/14 05:59:08;;;;;;;22.05;15.65;;;15.80;73.20;;;;;;5094585;28;20043;-74
2022/10/14 06:01:35;;;;;;;21.85;15.80;;;15.80;72.90;;;;;;5084539;28;20540;-74
2022/10/14 06:04:01;;;;;;;17.98;14.13;;;15.80;72.80;;;;;;5070845;28;20037;-73
2022/10/14 06:06:27;;;;;;;21.88;15.75;;;15.80;72.80;;;;;;5074012;28;20032;-75
2022/10/14 06:08:54;;;;;;;19.48;15.35;;;15.80;72.90;;;;;;5068116;28;20524;-72
2022/10/14 06:11:20;;;;;;;21.13;15.40;;;15.90;73.10;;;;;;5073965;28;20020;-72
2022/10/14 06:13:46;;;;;;;19.77;15.32;;;15.90;73.00;;;;;;5074278;28;20021;-75
2022/10/14 06:16:12;;;;;;;21.33;15.90;;;15.90;72.90;;;;;;5073961;28;20020;-72
2022/10/14 06:18:38;;;;;;;22.38;15.32;;;15.90;72.80;;;;;;5072464;28;20033;-72
2022/10/14 06:21:06;;;;;;;20.45;15.38;;;15.90;72.90;;;;;;5074092;28;20031;-75
2022/10/14 06:23:33;;;;;;;22.17;13.88;;;15.90;73.00;;;;;;5072060;28;20020;-71
2022/10/14 06:26:03;;;;;;;18.23;14.32;;;15.90;73.10;;;;;;5085531;28;20469;-74
2022/10/14 06:28:29;;;;;;;18.90;14.50;;;15.90;73.10;;;;;;5065405;28;20029;-72
2022/10/14 06:30:55;;;;;;;21.02;15.57;;;16.00;73.90;;;;;;5064872;28;20442;-73
2022/10/14 06:33:21;;;;;;;22.20;14.02;;;16.00;73.10;;;;;;5073506;28;20107;-74
2022/10/14 06:35:48;;;;;;;21.00;15.55;;;16.00;73.10;;;;;;5065053;28;20040;-74
2022/10/14 06:38:14;;;;;;;20.35;14.30;;;16.00;73.20;;;;;;5071426;28;20024;-75
2022/10/14 06:40:40;;;;;;;22.58;15.15;;;16.10;73.20;;;;;;5073092;28;20078;-72
2022/10/14 06:43:06;;;;;;;18.88;14.52;;;16.10;73.10;;;;;;5073377;28;20028;-74
2022/10/14 06:45:32;;;;;;;21.45;15.10;;;16.10;73.00;;;;;;5073074;28;20051;-74
2022/10/14 06:47:58;;;;;;;18.13;14.57;;;16.20;73.10;;;;;;5072987;28;20028;-74
2022/10/14 06:50:24;;;;;;;19.15;14.27;;;16.20;73.20;;;;;;5070927;28;20069;-75
2022/10/14 06:52:50;;;;;;;19.33;14.68;;;16.30;73.30;;;;;;5072286;28;20163;-77
2022/10/14 06:55:16;;;;;;;20.10;14.73;;;16.40;73.60;;;;;;5071739;28;20032;-72
2022/10/14 06:57:42;;;;;;;18.52;15.15;;;16.40;74.10;;;;;;5073498;28;20027;-75
2022/10/14 07:00:09;;;;;;;21.30;15.57;;;16.50;74.10;;;;;;5072097;28;20108;-72
2022/10/14 07:02:37;;;;;;;21.65;15.45;;;16.70;74.00;;;;;;5071862;28;20484;-75
2022/10/14 07:05:03;;;;;;;25.95;16.05;;;16.80;73.90;;;;;;5073001;28;20032;-76
2022/10/14 07:07:30;;;;;;;17.67;14.55;;;16.90;73.80;;;;;;5073203;28;20605;-73
2022/10/14 07:09:57;;;;;;;24.90;14.65;;;17.00;73.70;;;;;;5073280;28;20031;-76
2022/10/14 07:12:23;;;;;;;18.67;15.02;;;17.10;73.80;;;;;;5073154;28;20020;-73
2022/10/14 07:14:49;;;;;;;19.73;15.77;;;17.20;73.40;;;;;;5073132;28;20029;-71
2022/10/14 07:17:15;;;;;;;21.35;15.07;;;17.30;72.80;;;;;;5073034;28;20505;-71
2022/10/14 07:19:40;;;;;;;18.45;14.85;;;17.40;72.00;;;;;;5073098;28;20052;-73
2022/10/14 07:22:06;;;;;;;18.20;13.73;;;17.40;71.60;;;;;;5072893;28;20489;-75
2022/10/14 07:24:32;;;;;;;16.38;12.70;;;17.40;71.30;;;;;;5072929;28;20092;-74
2022/10/14 07:26:58;;;;;;;17.27;13.88;;;17.50;71.40;;;;;;5072296;28;20044;-72
2022/10/14 07:29:24;;;;;;;19.42;14.57;;;17.50;71.40;;;;;;5072929;28;20025;-75
2022/10/14 07:31:50;;;;;;;20.85;14.75;;;17.50;71.50;;;;;;5072815;28;20028;-75
2022/10/14 07:34:16;;;;;;;18.55;14.05;;;17.60;71.70;;;;;;5073003;28;20386;-75
2022/10/14 07:36:41;;;;;;;19.63;14.90;;;17.60;71.40;;;;;;5072884;28;20126;-74
2022/10/14 07:39:07;;;;;;;17.42;13.65;;;17.70;71.00;;;;;;5072692;28;20025;-75
2022/10/14 07:41:33;;;;;;;18.00;14.23;;;17.70;71.00;;;;;;5072573;28;20020;-72
2022/10/14 07:44:04;;;;;;;17.70;14.13;;;17.70;70.70;;;;;;5072518;28;20114;-73
2022/10/14 07:46:32;;;;;;;21.23;13.90;;;17.70;70.50;;;;;;5072437;28;20048;-76
2022/10/14 07:49:04;;;;;;;18.02;13.90;;;17.70;70.50;;;;;;5072548;28;20028;-74
2022/10/14 07:51:30;;;;;;;18.63;14.82;;;17.70;70.70;;;;;;5072889;28;20028;-74
2022/10/14 07:53:57;;;;;;;18.30;15.02;;;17.70;70.80;;;;;;5072491;28;20020;-73
2022/10/14 07:56:23;;;;;;;18.38;14.77;;;17.80;70.60;;;;;;5072441;28;20070;-73
2022/10/14 07:58:49;;;;;;;20.70;15.65;;;17.80;70.50;;;;;;5072523;28;20025;-73
2022/10/14 08:01:17;;;;;;;22.10;16.77;;;17.80;70.40;;;;;;5072304;28;20533;-74
2022/10/14 08:03:44;;;;;;;21.52;15.60;;;17.90;70.70;;;;;;5072081;28;20020;-71
2022/10/14 08:06:10;;;;;;;20.95;15.77;;;17.90;70.60;;;;;;5072446;28;20024;-72
2022/10/14 08:08:37;;;;;;;24.55;15.75;;;18.00;70.70;;;;;;5072330;28;20055;-75
2022/10/14 08:11:17;;;;;;;23.15;15.63;;;18.00;71.30;;;;;;5072387;28;20497;-73
2022/10/14 08:13:44;;;;;;;22.25;16.13;;;18.10;71.60;;;;;;5071171;28;20067;-72
2022/10/14 08:16:22;;;;;;;23.00;16.98;;;18.20;71.10;;;;;;5072417;28;20028;-76
2022/10/14 08:18:48;;;;;;;19.98;16.25;;;18.30;70.30;;;;;;5072417;28;20024;-74
2022/10/14 08:21:15;;;;;;;22.67;17.42;;;18.40;70.20;;;;;;5071125;28;20035;-73
2022/10/14 08:23:42;;;;;;;31.05;22.55;;;18.40;69.70;;;;;;5072204;28;20025;-75
2022/10/14 08:26:38;;;;;;;36.85;24.23;;;18.40;69.20;;;;;;5072336;28;20017;-72
2022/10/14 08:29:06;;;;;;;35.05;25.02;;;18.40;69.30;;;;;;5073692;28;20037;-73
2022/10/14 08:31:33;;;;;;;37.80;25.13;;;18.50;69.30;;;;;;5061303;28;20108;-73
2022/10/14 08:33:59;;;;;;;39.00;25.30;;;18.50;69.40;;;;;;5060735;28;20760;-74
2022/10/14 08:36:25;;;;;;;37.42;28.67;;;18.50;69.80;;;;;;5073011;28;20032;-72
2022/10/14 08:38:53;;;;;;;40.20;27.33;;;18.60;70.30;;;;;;5071878;28;20497;-72
2022/10/14 08:41:40;;;;;;;37.35;27.40;;;18.70;70.30;;;;;;5071354;28;20078;-72
2022/10/14 08:44:12;;;;;;;36.72;25.10;;;18.80;70.40;;;;;;5057325;28;20028;-76
2022/10/14 08:46:57;;;;;;;35.92;25.08;;;19.00;69.70;;;;;;5055430;28;20098;-73
2022/10/14 08:49:36;;;;;;;34.45;25.27;;;19.10;69.40;;;;;;5062521;28;20028;-75
2022/10/14 08:52:07;;;;;;;36.35;24.95;;;19.30;70.10;;;;;;5071278;28;20033;-75
2022/10/14 08:54:43;;;;;;;36.47;25.63;;;19.40;70.10;;;;;;5054686;28;20448;-73
2022/10/14 08:57:20;;;;;;;33.92;25.05;;;19.50;68.90;;;;;;5070220;28;20323;-75
2022/10/14 08:59:47;;;;;;;41.40;28.58;;;19.60;68.60;;;;;;5073296;28;20025;-73
2022/10/14 09:02:46;;;;;;;43.10;30.60;;;19.60;67.70;;;;;;5069092;28;20493;-72
2022/10/14 09:05:17;;;;;;;39.42;28.15;;;19.70;68.00;;;;;;5074268;28;20030;-74
2022/10/14 09:07:45;;;;;;;38.10;28.33;;;19.80;67.80;;;;;;5075296;28;20017;-73
2022/10/14 09:10:24;;;;;;;37.10;27.65;;;19.80;67.50;;;;;;5074544;28;20443;-72
2022/10/14 09:12:52;;;;;;;39.72;28.42;;;19.80;66.80;;;;;;5075230;28;20024;-71
2022/10/14 09:15:29;;;;;;;43.83;30.75;;;19.80;65.50;;;;;;5073473;28;20099;-71
2022/10/14 09:18:05;;;;;;;61.28;37.58;;;19.80;65.60;;;;;;5075321;28;20025;-78
2022/10/14 09:20:31;;;;;;;53.42;35.58;;;19.70;64.80;;;;;;5074177;28;20032;-77
2022/10/14 09:23:12;;;;;;;41.17;30.08;;;19.70;64.80;;;;;;5068069;28;20486;-75
2022/10/14 09:25:45;;;;;;;47.13;31.73;;;19.60;64.50;;;;;;5061244;28;20100;-72
2022/10/14 09:28:10;;;;;;;41.90;29.33;;;19.60;66.90;;;;;;5073221;28;20103;-81
2022/10/14 09:30:39;;;;;;;52.63;35.40;;;19.70;67.50;;;;;;5073542;28;20100;-77
2022/10/14 09:33:10;;;;;;;48.63;32.88;;;19.80;66.50;;;;;;5073771;28;20013;-76
2022/10/14 09:35:40;;;;;;;50.60;33.38;;;19.90;67.30;;;;;;5074077;28;20482;-76
2022/10/14 09:38:06;;;;;;;43.28;30.73;;;20.00;67.10;;;;;;5071510;28;20031;-75
2022/10/14 09:40:38;;;;;;;53.05;33.80;;;20.20;68.00;;;;;;5072050;28;20060;-78
2022/10/14 09:43:07;;;;;;;55.08;35.58;;;20.20;66.30;;;;;;5073699;28;20108;-75
2022/10/14 09:45:50;;;;;;;58.88;36.60;;;20.40;65.40;;;;;;5072982;28;20037;-75
2022/10/14 09:48:31;;;;;;;55.85;36.97;;;20.40;65.50;;;;;;5088871;28;20385;-74
2022/10/14 09:51:02;;;;;;;51.08;33.97;;;20.50;64.90;;;;;;5070479;28;20421;-74
2022/10/14 09:53:35;;;;;;;53.13;36.47;;;20.50;65.40;;;;;;5073421;28;20091;-75
2022/10/14 09:56:04;;;;;;;49.63;35.97;;;20.60;65.20;;;;;;5069357;28;20016;-78
2022/10/14 09:58:37;;;;;;;48.88;33.83;;;20.60;65.10;;;;;;5072835;28;20062;-75
2022/10/14 10:01:04;;;;;;;56.08;35.00;;;20.70;64.60;;;;;;5071179;28;20043;-77
2022/10/14 10:03:34;;;;;;;46.67;29.52;;;20.70;64.10;;;;;;5072577;28;20028;-79
2022/10/14 10:06:13;;;;;;;41.70;29.52;;;20.80;64.50;;;;;;5070673;28;20439;-80
2022/10/14 10:08:52;;;;;;;43.90;30.50;;;20.80;64.70;;;;;;5071538;28;20096;-80
2022/10/14 10:11:38;;;;;;;40.10;30.05;;;20.80;64.90;;;;;;5070264;28;20027;-78
2022/10/14 10:14:27;;;;;;;43.75;32.05;;;20.90;64.50;;;;;;5084922;28;20107;-79
2022/10/14 10:17:11;;;;;;;41.35;29.95;;;21.00;65.10;;;;;;5071842;28;20012;-74
2022/10/14 10:19:41;;;;;;;44.13;31.08;;;21.10;65.10;;;;;;5069731;28;20075;-78
2022/10/14 10:22:16;;;;;;;45.85;30.25;;;21.20;64.10;;;;;;5073881;28;20465;-76
2022/10/14 10:24:43;;;;;;;42.88;28.30;;;21.30;64.00;;;;;;5072539;28;20100;-73
2022/10/14 10:27:35;;;;;;;39.28;26.75;;;21.40;65.10;;;;;;5073859;28;20139;-81
2022/10/14 10:30:19;;;;;;;29.27;21.10;;;21.50;65.00;;;;;;5073701;28;20039;-78
2022/10/14 10:33:00;;;;;;;41.08;28.25;;;21.70;64.10;;;;;;5073985;28;20039;-80
2022/10/14 10:35:45;;;;;;;40.85;26.35;;;21.80;63.50;;;;;;5083204;28;20019;-81
2022/10/14 10:38:20;;;;;;;33.83;25.33;;;21.90;62.00;;;;;;5077571;28;20131;-79
2022/10/14 10:40:46;;;;;;;32.40;24.05;;;22.00;61.70;;;;;;5072195;28;20441;-81
2022/10/14 10:43:18;;;;;;;32.63;23.15;;;22.00;62.10;;;;;;5087925;28;20024;-74
2022/10/14 10:45:53;;;;;;;30.90;22.15;;;22.00;61.20;;;;;;5093470;28;20055;-74
2022/10/14 10:48:33;;;;;;;33.28;24.50;;;22.10;61.00;;;;;;5092565;28;20017;-79
2022/10/14 10:51:04;;;;;;;37.40;27.08;;;22.20;61.00;;;;;;5088251;28;20486;-76
2022/10/14 10:54:09;;;;;;;38.00;26.58;;;22.30;60.40;;;;;;5080218;28;20020;-77
2022/10/14 10:57:01;;;;;;;33.67;24.23;;;22.30;59.60;;;;;;5093181;28;20028;-80
2022/10/14 10:59:32;;;;;;;35.25;24.40;;;22.40;59.40;;;;;;5085899;28;20451;-81
2022/10/14 11:02:42;;;;;;;34.53;21.95;;;22.40;58.70;;;;;;5092616;28;20027;-78
2022/10/14 11:05:35;;;;;;;26.58;19.25;;;22.40;58.90;;;;;;5076962;28;20502;-80
2022/10/14 11:14:17;;;;;;;20.63;14.57;;;22.50;57.90;;;;;;5073276;28;20027;-75
2022/10/14 11:17:00;;;;;;;17.85;13.55;;;22.50;57.50;;;;;;5072962;28;20020;-80
2022/10/14 11:19:53;;;;;;;17.15;11.50;;;22.50;57.20;;;;;;5071754;28;20059;-76
2022/10/14 11:22:38;;;;;;;15.05;11.18;;;22.50;59.00;;;;;;5072777;28;20099;-77
2022/10/14 11:25:16;;;;;;;14.50;9.43;;;22.60;58.30;;;;;;5072891;28;20029;-77
2022/10/14 11:27:59;;;;;;;14.25;9.45;;;22.60;56.80;;;;;;5072782;28;20104;-81
2022/10/14 11:31:02;;;;;;;13.57;9.32;;;22.60;57.10;;;;;;5088632;28;20067;-82
2022/10/14 11:33:36;;;;;;;15.20;9.13;;;22.60;57.90;;;;;;5040977;28;20056;-78
2022/10/14 11:36:30;;;;;;;18.75;11.32;;;22.60;56.60;;;;;;5072847;28;20016;-77
2022/10/14 11:38:59;;;;;;;16.65;12.50;;;22.60;57.20;;;;;;5072791;28;20008;-81
2022/10/14 11:41:40;;;;;;;14.80;10.48;;;22.50;56.30;;;;;;5073061;28;20091;-77
2022/10/14 11:44:34;;;;;;;10.73;8.52;;;22.40;56.30;;;;;;5072999;28;20429;-77
2022/10/14 11:47:11;;;;;;;10.70;7.40;;;22.30;56.80;;;;;;5067238;28;20064;-80
2022/10/14 11:50:15;;;;;;;10.68;6.90;;;22.30;56.50;;;;;;5073043;28;20074;-79
2022/10/14 11:53:12;;;;;;;8.68;6.38;;;22.30;56.40;;;;;;5073105;28;20521;-78
2022/10/14 11:55:43;;;;;;;12.52;6.00;;;22.30;57.00;;;;;;5072361;28;20029;-80
2022/10/14 11:58:19;;;;;;;12.68;6.38;;;22.30;56.90;;;;;;5071800;28;20021;-80
2022/10/14 12:01:00;;;;;;;10.63;6.05;;;22.30;56.20;;;;;;5070113;28;20077;-79
2022/10/14 12:03:35;;;;;;;10.82;5.55;;;22.30;56.90;;;;;;5086242;28;20016;-75
2022/10/14 12:06:03;;;;;;;12.88;6.22;;;22.30;56.00;;;;;;5065352;28;20143;-77
2022/10/14 12:09:00;;;;;;;8.13;5.95;;;22.20;56.10;;;;;;5071049;28;20462;-79
2022/10/14 12:11:51;;;;;;;7.32;5.72;;;22.20;56.20;;;;;;5067144;28;20399;-84
2022/10/14 12:14:23;;;;;;;8.68;5.90;;;22.20;57.10;;;;;;5082363;28;20539;-75
2022/10/14 12:16:50;;;;;;;8.77;5.85;;;22.20;57.80;;;;;;5075133;28;20071;-79
2022/10/14 12:19:24;;;;;;;7.70;5.05;;;22.20;57.50;;;;;;5074242;28;20432;-81
2022/10/14 12:22:00;;;;;;;5.88;4.50;;;22.20;58.10;;;;;;5074020;28;20419;-76
2022/10/14 12:24:38;;;;;;;5.72;4.72;;;22.20;58.10;;;;;;5076004;28;20017;-77
2022/10/14 12:27:08;;;;;;;6.95;5.10;;;22.30;57.60;;;;;;5074213;28;20042;-77
2022/10/14 12:29:41;;;;;;;7.35;4.85;;;22.40;58.10;;;;;;5075444;28;20020;-74
2022/10/14 12:32:19;;;;;;;8.23;5.10;;;22.50;57.70;;;;;;5087425;28;20028;-78
2022/10/14 12:34:47;;;;;;;9.27;4.45;;;22.50;57.70;;;;;;5073350;28;20078;-78
2022/10/14 12:37:41;;;;;;;7.93;4.53;;;22.50;57.40;;;;;;5075423;28;20031;-77
2022/10/14 12:40:13;;;;;;;7.47;4.60;;;22.50;57.40;;;;;;5073613;28;20024;-78
2022/10/14 12:43:02;;;;;;;5.72;3.92;;;22.40;57.40;;;;;;5074827;28;20051;-76
2022/10/14 12:45:32;;;;;;;8.13;4.25;;;22.40;56.90;;;;;;5073414;28;20071;-75
2022/10/14 12:48:19;;;;;;;7.78;4.70;;;22.30;57.20;;;;;;5074953;28;20025;-80
2022/10/14 12:50:47;;;;;;;13.75;4.78;;;22.20;57.00;;;;;;5073030;28;20019;-76
2022/10/14 12:53:21;;;;;;;11.07;3.95;;;22.10;56.60;;;;;;5074995;28;20040;-78
2022/10/14 12:55:56;;;;;;;7.13;3.13;;;22.00;57.10;;;;;;5073214;28;20416;-76